sensor_id;sensor_type;location;lat;lon;timestamp;P1;durP1;ratioP1;P2;durP2;ratioP2
9689;SDS011;4884;42.614;23.340;2023-04-25T00:02:01;7.07;;;6.47;;
9689;SDS011;4884;42.614;23.340;2023-04-25T00:04:27;7.23;;;6.60;;
9689;SDS011;4884;42.614;23.340;2023-04-25T00:06:53;7.57;;;6.93;;
9689;SDS011;4884;42.614;23.340;2023-04-25T00:09:19;7.93;;;7.23;;
9689;SDS011;4884;42.614;23.340;2023-04-25T00:11:44;7.77;;;7.07;;
9689;SDS011;4884;42.614;23.340;2023-04-25T00:14:09;7.73;;;6.93;;
9689;SDS011;4884;42.614;23.340;2023-04-25T00:16:35;6.73;;;6.07;;
9689;SDS011;4884;42.614;23.340;2023-04-25T00:19:03;6.70;;;6.03;;
9689;SDS011;4884;42.614;23.340;2023-04-25T00:21:29;4.77;;;4.03;;
9689;SDS011;4884;42.614;23.340;2023-04-25T00:23:56;2.83;;;2.63;;
9689;SDS011;4884;42.614;23.340;2023-04-25T00:26:21;2.60;;;2.40;;
9689;SDS011;4884;42.614;23.340;2023-04-25T00:28:47;3.30;;;2.80;;
9689;SDS011;4884;42.614;23.340;2023-04-25T00:31:13;2.70;;;2.43;;
9689;SDS011;4884;42.614;23.340;2023-04-25T00:33:38;2.00;;;1.83;;
9689;SDS011;4884;42.614;23.340;2023-04-25T00:36:04;1.70;;;1.60;;
9689;SDS011;4884;42.614;23.340;2023-04-25T00:38:30;2.00;;;1.90;;
9689;SDS011;4884;42.614;23.340;2023-04-25T00:40:55;1.97;;;1.83;;
9689;SDS011;4884;42.614;23.340;2023-04-25T00:43:21;2.00;;;1.90;;
9689;SDS011;4884;42.614;23.340;2023-04-25T00:45:47;2.00;;;1.90;;
9689;SDS011;4884;42.614;23.340;2023-04-25T00:48:15;2.40;;;2.10;;
9689;SDS011;4884;42.614;23.340;2023-04-25T00:50:43;2.50;;;2.30;;
9689;SDS011;4884;42.614;23.340;2023-04-25T00:53:22;4.30;;;3.90;;
9689;SDS011;4884;42.614;23.340;2023-04-25T00:55:48;5.93;;;5.30;;
9689;SDS011;4884;42.614;23.340;2023-04-25T00:58:16;7.90;;;7.10;;
9689;SDS011;4884;42.614;23.340;2023-04-25T01:00:42;7.60;;;6.87;;
9689;SDS011;4884;42.614;23.340;2023-04-25T01:03:08;7.73;;;6.87;;
9689;SDS011;4884;42.614;23.340;2023-04-25T01:05:35;6.43;;;5.83;;
9689;SDS011;4884;42.614;23.340;2023-04-25T01:08:00;6.93;;;6.03;;
9689;SDS011;4884;42.614;23.340;2023-04-25T01:10:26;4.70;;;4.00;;
9689;SDS011;4884;42.614;23.340;2023-04-25T01:12:51;5.13;;;4.63;;
9689;SDS011;4884;42.614;23.340;2023-04-25T01:15:17;5.90;;;3.70;;
9689;SDS011;4884;42.614;23.340;2023-04-25T01:17:42;5.10;;;3.50;;
9689;SDS011;4884;42.614;23.340;2023-04-25T01:20:09;3.80;;;3.33;;
9689;SDS011;4884;42.614;23.340;2023-04-25T01:22:35;4.87;;;3.70;;
9689;SDS011;4884;42.614;23.340;2023-04-25T01:25:01;4.83;;;3.87;;
9689;SDS011;4884;42.614;23.340;2023-04-25T01:27:27;4.17;;;3.70;;
9689;SDS011;4884;42.614;23.340;2023-04-25T01:29:53;4.00;;;3.47;;
9689;SDS011;4884;42.614;23.340;2023-04-25T01:32:20;4.87;;;4.33;;
9689;SDS011;4884;42.614;23.340;2023-04-25T01:34:46;4.90;;;4.40;;
9689;SDS011;4884;42.614;23.340;2023-04-25T01:37:11;4.60;;;4.20;;
9689;SDS011;4884;42.614;23.340;2023-04-25T01:39:36;4.40;;;4.00;;
9689;SDS011;4884;42.614;23.340;2023-04-25T01:42:02;6.40;;;5.03;;
9689;SDS011;4884;42.614;23.340;2023-04-25T01:44:27;5.63;;;5.03;;
9689;SDS011;4884;42.614;23.340;2023-04-25T01:46:53;6.67;;;5.57;;
9689;SDS011;4884;42.614;23.340;2023-04-25T01:49:18;8.63;;;7.73;;
9689;SDS011;4884;42.614;23.340;2023-04-25T01:51:44;10.53;;;8.63;;
9689;SDS011;4884;42.614;23.340;2023-04-25T01:54:09;11.47;;;9.13;;
9689;SDS011;4884;42.614;23.340;2023-04-25T01:56:36;14.27;;;12.77;;
9689;SDS011;4884;42.614;23.340;2023-04-25T01:59:04;17.53;;;12.83;;
9689;SDS011;4884;42.614;23.340;2023-04-25T02:01:30;14.40;;;12.47;;
9689;SDS011;4884;42.614;23.340;2023-04-25T02:03:56;13.30;;;11.80;;
9689;SDS011;4884;42.614;23.340;2023-04-25T02:06:21;16.03;;;13.27;;
9689;SDS011;4884;42.614;23.340;2023-04-25T02:08:46;17.63;;;15.30;;
9689;SDS011;4884;42.614;23.340;2023-04-25T02:11:12;15.57;;;13.80;;
9689;SDS011;4884;42.614;23.340;2023-04-25T02:13:37;17.83;;;14.53;;
9689;SDS011;4884;42.614;23.340;2023-04-25T02:16:03;18.90;;;14.27;;
9689;SDS011;4884;42.614;23.340;2023-04-25T02:18:28;20.37;;;15.70;;
9689;SDS011;4884;42.614;23.340;2023-04-25T02:20:54;20.77;;;16.53;;
9689;SDS011;4884;42.614;23.340;2023-04-25T02:23:19;18.47;;;15.27;;
9689;SDS011;4884;42.614;23.340;2023-04-25T02:25:45;20.17;;;17.37;;
9689;SDS011;4884;42.614;23.340;2023-04-25T02:28:10;19.53;;;17.17;;
9689;SDS011;4884;42.614;23.340;2023-04-25T02:30:36;21.67;;;16.67;;
9689;SDS011;4884;42.614;23.340;2023-04-25T02:33:01;21.33;;;16.13;;
9689;SDS011;4884;42.614;23.340;2023-04-25T02:35:27;20.10;;;16.37;;
9689;SDS011;4884;42.614;23.340;2023-04-25T02:37:52;19.13;;;15.73;;
9689;SDS011;4884;42.614;23.340;2023-04-25T02:40:17;19.43;;;15.60;;
9689;SDS011;4884;42.614;23.340;2023-04-25T02:42:43;16.33;;;13.80;;
9689;SDS011;4884;42.614;23.340;2023-04-25T02:45:10;16.47;;;14.23;;
9689;SDS011;4884;42.614;23.340;2023-04-25T02:47:36;16.77;;;14.97;;
9689;SDS011;4884;42.614;23.340;2023-04-25T02:50:01;18.90;;;15.40;;
9689;SDS011;4884;42.614;23.340;2023-04-25T02:52:27;14.43;;;12.07;;
9689;SDS011;4884;42.614;23.340;2023-04-25T02:54:52;12.73;;;11.43;;
9689;SDS011;4884;42.614;23.340;2023-04-25T02:57:17;13.00;;;11.10;;
9689;SDS011;4884;42.614;23.340;2023-04-25T02:59:43;13.07;;;10.97;;
9689;SDS011;4884;42.614;23.340;2023-04-25T03:02:08;9.53;;;8.20;;
9689;SDS011;4884;42.614;23.340;2023-04-25T03:04:35;13.30;;;11.63;;
9689;SDS011;4884;42.614;23.340;2023-04-25T03:07:00;10.70;;;9.60;;
9689;SDS011;4884;42.614;23.340;2023-04-25T03:09:26;9.77;;;8.80;;
9689;SDS011;4884;42.614;23.340;2023-04-25T03:11:51;9.87;;;8.87;;
9689;SDS011;4884;42.614;23.340;2023-04-25T03:14:16;19.90;;;17.67;;
9689;SDS011;4884;42.614;23.340;2023-04-25T03:16:42;11.60;;;10.50;;
9689;SDS011;4884;42.614;23.340;2023-04-25T03:19:07;8.83;;;8.03;;
9689;SDS011;4884;42.614;23.340;2023-04-25T03:21:33;7.83;;;7.03;;
9689;SDS011;4884;42.614;23.340;2023-04-25T03:24:00;7.83;;;6.00;;
9689;SDS011;4884;42.614;23.340;2023-04-25T03:26:27;8.03;;;7.33;;
9689;SDS011;4884;42.614;23.340;2023-04-25T03:28:52;7.33;;;6.63;;
9689;SDS011;4884;42.614;23.340;2023-04-25T03:31:17;12.90;;;11.60;;
9689;SDS011;4884;42.614;23.340;2023-04-25T03:33:43;12.97;;;11.67;;
9689;SDS011;4884;42.614;23.340;2023-04-25T03:36:08;13.97;;;12.33;;
9689;SDS011;4884;42.614;23.340;2023-04-25T03:38:34;13.43;;;12.00;;
9689;SDS011;4884;42.614;23.340;2023-04-25T03:41:00;14.50;;;13.00;;
9689;SDS011;4884;42.614;23.340;2023-04-25T03:43:26;11.23;;;10.13;;
9689;SDS011;4884;42.614;23.340;2023-04-25T03:45:51;11.67;;;10.47;;
9689;SDS011;4884;42.614;23.340;2023-04-25T03:48:17;11.40;;;10.23;;
9689;SDS011;4884;42.614;23.340;2023-04-25T03:50:42;9.33;;;8.03;;
9689;SDS011;4884;42.614;23.340;2023-04-25T03:53:08;8.90;;;8.20;;
9689;SDS011;4884;42.614;23.340;2023-04-25T03:55:33;9.30;;;7.87;;
9689;SDS011;4884;42.614;23.340;2023-04-25T03:57:58;9.27;;;8.37;;
9689;SDS011;4884;42.614;23.340;2023-04-25T04:00:24;7.20;;;6.50;;
9689;SDS011;4884;42.614;23.340;2023-04-25T04:02:50;6.83;;;6.17;;
9689;SDS011;4884;42.614;23.340;2023-04-25T04:05:15;8.00;;;7.27;;
9689;SDS011;4884;42.614;23.340;2023-04-25T04:07:41;6.90;;;6.20;;
9689;SDS011;4884;42.614;23.340;2023-04-25T04:10:08;8.10;;;7.40;;
9689;SDS011;4884;42.614;23.340;2023-04-25T04:12:37;5.17;;;4.77;;
9689;SDS011;4884;42.614;23.340;2023-04-25T04:15:03;7.50;;;5.80;;
9689;SDS011;4884;42.614;23.340;2023-04-25T04:17:29;5.13;;;4.17;;
9689;SDS011;4884;42.614;23.340;2023-04-25T04:19:55;2.80;;;2.60;;
9689;SDS011;4884;42.614;23.340;2023-04-25T04:22:20;5.40;;;4.90;;
9689;SDS011;4884;42.614;23.340;2023-04-25T04:24:46;9.87;;;8.23;;
9689;SDS011;4884;42.614;23.340;2023-04-25T04:27:12;9.17;;;8.27;;
9689;SDS011;4884;42.614;23.340;2023-04-25T04:29:38;6.27;;;5.67;;
9689;SDS011;4884;42.614;23.340;2023-04-25T04:32:03;5.00;;;3.43;;
9689;SDS011;4884;42.614;23.340;2023-04-25T04:34:29;5.43;;;4.83;;
9689;SDS011;4884;42.614;23.340;2023-04-25T04:36:56;9.10;;;5.60;;
9689;SDS011;4884;42.614;23.340;2023-04-25T04:39:21;4.57;;;4.17;;
9689;SDS011;4884;42.614;23.340;2023-04-25T04:41:47;10.10;;;9.10;;
9689;SDS011;4884;42.614;23.340;2023-04-25T04:44:12;13.73;;;12.23;;
9689;SDS011;4884;42.614;23.340;2023-04-25T04:46:39;13.43;;;12.13;;
9689;SDS011;4884;42.614;23.340;2023-04-25T04:49:07;15.03;;;12.53;;
9689;SDS011;4884;42.614;23.340;2023-04-25T04:51:35;14.20;;;12.70;;
9689;SDS011;4884;42.614;23.340;2023-04-25T04:54:02;15.63;;;13.17;;
9689;SDS011;4884;42.614;23.340;2023-04-25T04:56:28;15.77;;;14.17;;
9689;SDS011;4884;42.614;23.340;2023-04-25T04:58:56;16.40;;;14.70;;
9689;SDS011;4884;42.614;23.340;2023-04-25T05:01:21;18.10;;;16.00;;
9689;SDS011;4884;42.614;23.340;2023-04-25T05:03:47;15.90;;;13.83;;
9689;SDS011;4884;42.614;23.340;2023-04-25T05:06:12;14.93;;;13.33;;
9689;SDS011;4884;42.614;23.340;2023-04-25T05:08:38;16.70;;;13.60;;
9689;SDS011;4884;42.614;23.340;2023-04-25T05:11:03;15.47;;;13.87;;
9689;SDS011;4884;42.614;23.340;2023-04-25T05:13:28;18.50;;;16.37;;
9689;SDS011;4884;42.614;23.340;2023-04-25T05:15:54;23.87;;;19.67;;
9689;SDS011;4884;42.614;23.340;2023-04-25T05:18:19;22.30;;;18.90;;
9689;SDS011;4884;42.614;23.340;2023-04-25T05:20:45;24.97;;;21.40;;
9689;SDS011;4884;42.614;23.340;2023-04-25T05:23:10;22.27;;;18.73;;
9689;SDS011;4884;42.614;23.340;2023-04-25T05:25:36;21.97;;;19.57;;
9689;SDS011;4884;42.614;23.340;2023-04-25T05:28:01;24.50;;;20.33;;
9689;SDS011;4884;42.614;23.340;2023-04-25T05:30:27;19.27;;;17.20;;
9689;SDS011;4884;42.614;23.340;2023-04-25T05:32:52;18.50;;;15.93;;
9689;SDS011;4884;42.614;23.340;2023-04-25T05:35:17;18.63;;;15.83;;
9689;SDS011;4884;42.614;23.340;2023-04-25T05:37:43;24.60;;;18.47;;
9689;SDS011;4884;42.614;23.340;2023-04-25T05:40:08;20.37;;;18.17;;
9689;SDS011;4884;42.614;23.340;2023-04-25T05:42:34;21.57;;;18.30;;
9689;SDS011;4884;42.614;23.340;2023-04-25T05:45:00;24.60;;;19.47;;
9689;SDS011;4884;42.614;23.340;2023-04-25T05:47:25;21.83;;;18.37;;
9689;SDS011;4884;42.614;23.340;2023-04-25T05:49:51;18.60;;;16.33;;
9689;SDS011;4884;42.614;23.340;2023-04-25T05:52:16;17.87;;;16.07;;
9689;SDS011;4884;42.614;23.340;2023-04-25T05:54:42;28.63;;;25.67;;
9689;SDS011;4884;42.614;23.340;2023-04-25T05:57:07;34.23;;;30.77;;
9689;SDS011;4884;42.614;23.340;2023-04-25T05:59:32;21.47;;;19.03;;
9689;SDS011;4884;42.614;23.340;2023-04-25T06:01:58;22.50;;;19.90;;
9689;SDS011;4884;42.614;23.340;2023-04-25T06:04:25;25.80;;;20.83;;
9689;SDS011;4884;42.614;23.340;2023-04-25T06:06:50;25.67;;;22.60;;
9689;SDS011;4884;42.614;23.340;2023-04-25T06:09:15;26.57;;;22.77;;
9689;SDS011;4884;42.614;23.340;2023-04-25T06:11:41;23.63;;;20.97;;
9689;SDS011;4884;42.614;23.340;2023-04-25T06:14:06;24.17;;;20.93;;
9689;SDS011;4884;42.614;23.340;2023-04-25T06:16:32;27.77;;;23.60;;
9689;SDS011;4884;42.614;23.340;2023-04-25T06:18:57;27.47;;;23.17;;
9689;SDS011;4884;42.614;23.340;2023-04-25T06:21:23;27.13;;;21.87;;
9689;SDS011;4884;42.614;23.340;2023-04-25T06:23:48;22.70;;;20.30;;
9689;SDS011;4884;42.614;23.340;2023-04-25T06:26:13;26.47;;;22.50;;
9689;SDS011;4884;42.614;23.340;2023-04-25T06:28:39;31.97;;;24.10;;
9689;SDS011;4884;42.614;23.340;2023-04-25T06:31:04;30.87;;;24.30;;
9689;SDS011;4884;42.614;23.340;2023-04-25T06:33:30;32.90;;;25.13;;
9689;SDS011;4884;42.614;23.340;2023-04-25T06:35:55;27.67;;;22.47;;
9689;SDS011;4884;42.614;23.340;2023-04-25T06:38:20;19.03;;;17.03;;
9689;SDS011;4884;42.614;23.340;2023-04-25T06:40:46;17.37;;;15.23;;
9689;SDS011;4884;42.614;23.340;2023-04-25T06:43:11;15.20;;;13.70;;
9689;SDS011;4884;42.614;23.340;2023-04-25T06:45:36;12.33;;;11.23;;
9689;SDS011;4884;42.614;23.340;2023-04-25T06:48:02;11.80;;;10.70;;
9689;SDS011;4884;42.614;23.340;2023-04-25T06:50:27;10.57;;;9.67;;
9689;SDS011;4884;42.614;23.340;2023-04-25T06:52:53;8.93;;;8.23;;
9689;SDS011;4884;42.614;23.340;2023-04-25T06:55:18;13.27;;;7.37;;
9689;SDS011;4884;42.614;23.340;2023-04-25T06:57:43;8.47;;;7.60;;
9689;SDS011;4884;42.614;23.340;2023-04-25T07:00:09;6.70;;;6.10;;
9689;SDS011;4884;42.614;23.340;2023-04-25T07:02:36;6.93;;;6.33;;
9689;SDS011;4884;42.614;23.340;2023-04-25T07:05:02;5.53;;;5.07;;
9689;SDS011;4884;42.614;23.340;2023-04-25T07:07:29;6.73;;;5.43;;
9689;SDS011;4884;42.614;23.340;2023-04-25T07:09:55;6.70;;;5.83;;
9689;SDS011;4884;42.614;23.340;2023-04-25T07:12:20;7.33;;;6.73;;
9689;SDS011;4884;42.614;23.340;2023-04-25T07:14:46;7.83;;;6.47;;
9689;SDS011;4884;42.614;23.340;2023-04-25T07:17:11;8.60;;;7.83;;
9689;SDS011;4884;42.614;23.340;2023-04-25T07:19:37;9.13;;;8.00;;
9689;SDS011;4884;42.614;23.340;2023-04-25T07:22:04;7.77;;;7.17;;
9689;SDS011;4884;42.614;23.340;2023-04-25T07:24:30;9.77;;;8.90;;
9689;SDS011;4884;42.614;23.340;2023-04-25T07:26:55;9.77;;;8.77;;
9689;SDS011;4884;42.614;23.340;2023-04-25T07:29:21;10.30;;;9.30;;
9689;SDS011;4884;42.614;23.340;2023-04-25T07:31:46;12.97;;;10.13;;
9689;SDS011;4884;42.614;23.340;2023-04-25T07:34:12;10.83;;;9.77;;
9689;SDS011;4884;42.614;23.340;2023-04-25T07:36:38;13.63;;;9.43;;
9689;SDS011;4884;42.614;23.340;2023-04-25T07:39:03;9.93;;;8.93;;
9689;SDS011;4884;42.614;23.340;2023-04-25T07:41:28;10.60;;;9.50;;
9689;SDS011;4884;42.614;23.340;2023-04-25T07:43:54;9.80;;;8.80;;
9689;SDS011;4884;42.614;23.340;2023-04-25T07:46:19;10.40;;;7.73;;
9689;SDS011;4884;42.614;23.340;2023-04-25T07:48:45;14.03;;;8.80;;
9689;SDS011;4884;42.614;23.340;2023-04-25T07:51:10;11.03;;;9.93;;
9689;SDS011;4884;42.614;23.340;2023-04-25T07:53:35;10.17;;;9.17;;
9689;SDS011;4884;42.614;23.340;2023-04-25T07:56:02;12.47;;;9.60;;
9689;SDS011;4884;42.614;23.340;2023-04-25T07:58:28;10.37;;;9.37;;
9689;SDS011;4884;42.614;23.340;2023-04-25T08:00:53;11.00;;;10.07;;
9689;SDS011;4884;42.614;23.340;2023-04-25T08:03:18;10.27;;;9.13;;
9689;SDS011;4884;42.614;23.340;2023-04-25T08:05:44;10.17;;;9.13;;
9689;SDS011;4884;42.614;23.340;2023-04-25T08:08:10;12.00;;;9.77;;
9689;SDS011;4884;42.614;23.340;2023-04-25T08:10:36;11.00;;;9.77;;
9689;SDS011;4884;42.614;23.340;2023-04-25T08:13:01;10.83;;;9.80;;
9689;SDS011;4884;42.614;23.340;2023-04-25T08:15:26;10.47;;;9.17;;
9689;SDS011;4884;42.614;23.340;2023-04-25T08:17:52;10.03;;;8.17;;
9689;SDS011;4884;42.614;23.340;2023-04-25T08:20:17;9.97;;;8.73;;
9689;SDS011;4884;42.614;23.340;2023-04-25T08:22:43;9.83;;;8.40;;
9689;SDS011;4884;42.614;23.340;2023-04-25T08:25:08;8.53;;;7.60;;
9689;SDS011;4884;42.614;23.340;2023-04-25T08:27:33;8.00;;;7.20;;
9689;SDS011;4884;42.614;23.340;2023-04-25T08:29:59;8.83;;;7.40;;
9689;SDS011;4884;42.614;23.340;2023-04-25T08:32:25;7.10;;;6.40;;
9689;SDS011;4884;42.614;23.340;2023-04-25T08:34:50;6.97;;;6.27;;
9689;SDS011;4884;42.614;23.340;2023-04-25T08:37:19;5.83;;;5.07;;
9689;SDS011;4884;42.614;23.340;2023-04-25T08:39:44;5.20;;;4.80;;
9689;SDS011;4884;42.614;23.340;2023-04-25T08:42:10;8.17;;;4.20;;
9689;SDS011;4884;42.614;23.340;2023-04-25T08:44:36;3.30;;;3.00;;
9689;SDS011;4884;42.614;23.340;2023-04-25T08:47:02;3.80;;;3.50;;
9689;SDS011;4884;42.614;23.340;2023-04-25T08:49:30;3.77;;;3.47;;
9689;SDS011;4884;42.614;23.340;2023-04-25T08:51:56;5.07;;;3.90;;
9689;SDS011;4884;42.614;23.340;2023-04-25T08:54:24;4.27;;;3.57;;
9689;SDS011;4884;42.614;23.340;2023-04-25T08:56:53;3.47;;;3.27;;
9689;SDS011;4884;42.614;23.340;2023-04-25T08:59:19;4.70;;;3.70;;
9689;SDS011;4884;42.614;23.340;2023-04-25T09:01:45;4.17;;;3.50;;
9689;SDS011;4884;42.614;23.340;2023-04-25T09:04:11;6.30;;;4.07;;
9689;SDS011;4884;42.614;23.340;2023-04-25T09:06:37;5.80;;;4.67;;
9689;SDS011;4884;42.614;23.340;2023-04-25T09:09:07;3.43;;;3.10;;
9689;SDS011;4884;42.614;23.340;2023-04-25T09:11:33;4.20;;;3.00;;
9689;SDS011;4884;42.614;23.340;2023-04-25T09:14:14;3.37;;;3.13;;
9689;SDS011;4884;42.614;23.340;2023-04-25T09:19:21;5.47;;;4.43;;
9689;SDS011;4884;42.614;23.340;2023-04-25T09:21:50;5.53;;;4.93;;
9689;SDS011;4884;42.614;23.340;2023-04-25T09:24:19;6.20;;;4.83;;
9689;SDS011;4884;42.614;23.340;2023-04-25T09:26:56;5.20;;;4.73;;
9689;SDS011;4884;42.614;23.340;2023-04-25T09:29:24;7.10;;;4.77;;
9689;SDS011;4884;42.614;23.340;2023-04-25T09:31:57;4.60;;;4.20;;
9689;SDS011;4884;42.614;23.340;2023-04-25T09:34:43;4.60;;;4.23;;
9689;SDS011;4884;42.614;23.340;2023-04-25T09:37:10;5.07;;;4.57;;
9689;SDS011;4884;42.614;23.340;2023-04-25T09:39:36;3.37;;;3.10;;
9689;SDS011;4884;42.614;23.340;2023-04-25T09:42:04;4.60;;;4.20;;
9689;SDS011;4884;42.614;23.340;2023-04-25T09:44:30;4.87;;;4.27;;
9689;SDS011;4884;42.614;23.340;2023-04-25T09:46:57;5.70;;;5.20;;
9689;SDS011;4884;42.614;23.340;2023-04-25T09:49:24;5.70;;;4.27;;
9689;SDS011;4884;42.614;23.340;2023-04-25T09:51:57;5.80;;;5.30;;
9689;SDS011;4884;42.614;23.340;2023-04-25T09:54:26;8.90;;;6.43;;
9689;SDS011;4884;42.614;23.340;2023-04-25T09:56:52;9.43;;;6.83;;
9689;SDS011;4884;42.614;23.340;2023-04-25T09:59:21;6.00;;;5.43;;
9689;SDS011;4884;42.614;23.340;2023-04-25T10:01:50;6.77;;;4.87;;
9689;SDS011;4884;42.614;23.340;2023-04-25T10:04:21;5.27;;;4.73;;
9689;SDS011;4884;42.614;23.340;2023-04-25T10:06:48;5.53;;;3.90;;
9689;SDS011;4884;42.614;23.340;2023-04-25T10:09:15;5.33;;;4.80;;
9689;SDS011;4884;42.614;23.340;2023-04-25T10:11:42;4.67;;;4.17;;
9689;SDS011;4884;42.614;23.340;2023-04-25T10:14:09;4.17;;;3.77;;
9689;SDS011;4884;42.614;23.340;2023-04-25T10:16:36;4.60;;;2.20;;
9689;SDS011;4884;42.614;23.340;2023-04-25T10:19:02;2.67;;;2.30;;
9689;SDS011;4884;42.614;23.340;2023-04-25T10:21:27;5.10;;;1.97;;
9689;SDS011;4884;42.614;23.340;2023-04-25T10:23:53;2.03;;;1.60;;
9689;SDS011;4884;42.614;23.340;2023-04-25T10:26:19;1.93;;;1.57;;
9689;SDS011;4884;42.614;23.340;2023-04-25T10:28:54;1.57;;;1.40;;
9689;SDS011;4884;42.614;23.340;2023-04-25T10:31:22;1.57;;;1.47;;
9689;SDS011;4884;42.614;23.340;2023-04-25T10:33:48;1.23;;;1.13;;
9689;SDS011;4884;42.614;23.340;2023-04-25T10:36:18;1.93;;;1.40;;
9689;SDS011;4884;42.614;23.340;2023-04-25T10:38:47;1.20;;;1.10;;
9689;SDS011;4884;42.614;23.340;2023-04-25T10:41:13;1.70;;;1.50;;
9689;SDS011;4884;42.614;23.340;2023-04-25T10:43:39;1.10;;;1.00;;
9689;SDS011;4884;42.614;23.340;2023-04-25T10:51:25;1.10;;;1.00;;
9689;SDS011;4884;42.614;23.340;2023-04-25T10:56:20;1.20;;;1.00;;
9689;SDS011;4884;42.614;23.340;2023-04-25T10:59:08;1.53;;;0.97;;
9689;SDS011;4884;42.614;23.340;2023-04-25T11:01:38;2.40;;;1.93;;
9689;SDS011;4884;42.614;23.340;2023-04-25T11:04:03;2.50;;;2.30;;
9689;SDS011;4884;42.614;23.340;2023-04-25T11:06:33;4.00;;;3.17;;
9689;SDS011;4884;42.614;23.340;2023-04-25T11:09:02;2.17;;;1.50;;
9689;SDS011;4884;42.614;23.340;2023-04-25T11:11:28;1.13;;;1.03;;
9689;SDS011;4884;42.614;23.340;2023-04-25T11:13:54;1.77;;;1.30;;
9689;SDS011;4884;42.614;23.340;2023-04-25T11:16:19;1.63;;;1.53;;
9689;SDS011;4884;42.614;23.340;2023-04-25T11:18:44;1.73;;;1.10;;
9689;SDS011;4884;42.614;23.340;2023-04-25T11:21:10;2.00;;;0.83;;
9689;SDS011;4884;42.614;23.340;2023-04-25T11:23:36;3.47;;;1.20;;
9689;SDS011;4884;42.614;23.340;2023-04-25T11:26:02;0.60;;;0.60;;
9689;SDS011;4884;42.614;23.340;2023-04-25T11:28:30;0.83;;;0.83;;
9689;SDS011;4884;42.614;23.340;2023-04-25T11:30:56;0.90;;;0.80;;
9689;SDS011;4884;42.614;23.340;2023-04-25T11:33:25;0.90;;;0.90;;
9689;SDS011;4884;42.614;23.340;2023-04-25T11:35:55;0.90;;;0.90;;
9689;SDS011;4884;42.614;23.340;2023-04-25T11:38:24;2.63;;;1.40;;
9689;SDS011;4884;42.614;23.340;2023-04-25T11:40:52;1.77;;;1.03;;
9689;SDS011;4884;42.614;23.340;2023-04-25T11:43:20;1.67;;;1.37;;
9689;SDS011;4884;42.614;23.340;2023-04-25T11:45:46;1.20;;;1.10;;
9689;SDS011;4884;42.614;23.340;2023-04-25T11:48:13;1.60;;;1.47;;
9689;SDS011;4884;42.614;23.340;2023-04-25T11:50:39;1.73;;;1.60;;
9689;SDS011;4884;42.614;23.340;2023-04-25T11:53:04;2.33;;;1.70;;
9689;SDS011;4884;42.614;23.340;2023-04-25T11:55:31;1.70;;;1.60;;
9689;SDS011;4884;42.614;23.340;2023-04-25T11:57:56;3.20;;;1.80;;
9689;SDS011;4884;42.614;23.340;2023-04-25T12:00:25;2.23;;;1.77;;
9689;SDS011;4884;42.614;23.340;2023-04-25T12:02:55;3.40;;;1.87;;
9689;SDS011;4884;42.614;23.340;2023-04-25T12:05:23;3.77;;;1.63;;
9689;SDS011;4884;42.614;23.340;2023-04-25T12:07:50;1.37;;;1.20;;
9689;SDS011;4884;42.614;23.340;2023-04-25T12:10:17;1.37;;;1.13;;
9689;SDS011;4884;42.614;23.340;2023-04-25T12:12:44;1.20;;;0.83;;
9689;SDS011;4884;42.614;23.340;2023-04-25T12:15:25;1.00;;;0.90;;
9689;SDS011;4884;42.614;23.340;2023-04-25T12:17:51;1.80;;;1.20;;
9689;SDS011;4884;42.614;23.340;2023-04-25T12:20:19;1.00;;;1.00;;
9689;SDS011;4884;42.614;23.340;2023-04-25T12:22:51;1.20;;;1.00;;
9689;SDS011;4884;42.614;23.340;2023-04-25T12:28:09;3.50;;;2.30;;
9689;SDS011;4884;42.614;23.340;2023-04-25T12:30:52;1.93;;;1.00;;
9689;SDS011;4884;42.614;23.340;2023-04-25T12:33:21;1.43;;;1.00;;
9689;SDS011;4884;42.614;23.340;2023-04-25T12:35:47;3.67;;;3.37;;
9689;SDS011;4884;42.614;23.340;2023-04-25T12:40:47;0.87;;;0.87;;
9689;SDS011;4884;42.614;23.340;2023-04-25T12:43:12;1.17;;;1.07;;
9689;SDS011;4884;42.614;23.340;2023-04-25T12:45:38;1.90;;;1.20;;
9689;SDS011;4884;42.614;23.340;2023-04-25T12:48:03;1.93;;;1.57;;
9689;SDS011;4884;42.614;23.340;2023-04-25T12:50:28;4.60;;;1.60;;
9689;SDS011;4884;42.614;23.340;2023-04-25T12:52:54;1.00;;;0.90;;
9689;SDS011;4884;42.614;23.340;2023-04-25T12:55:19;2.73;;;1.40;;
9689;SDS011;4884;42.614;23.340;2023-04-25T12:57:45;1.47;;;1.20;;
9689;SDS011;4884;42.614;23.340;2023-04-25T13:00:10;2.87;;;1.27;;
9689;SDS011;4884;42.614;23.340;2023-04-25T13:02:39;2.70;;;1.30;;
9689;SDS011;4884;42.614;23.340;2023-04-25T13:05:05;3.23;;;1.10;;
9689;SDS011;4884;42.614;23.340;2023-04-25T13:07:30;3.20;;;1.87;;
9689;SDS011;4884;42.614;23.340;2023-04-25T13:09:56;3.80;;;2.20;;
9689;SDS011;4884;42.614;23.340;2023-04-25T13:12:21;3.40;;;1.80;;
9689;SDS011;4884;42.614;23.340;2023-04-25T13:14:46;1.87;;;1.60;;
9689;SDS011;4884;42.614;23.340;2023-04-25T13:17:12;2.33;;;1.80;;
9689;SDS011;4884;42.614;23.340;2023-04-25T13:19:37;2.17;;;1.80;;
9689;SDS011;4884;42.614;23.340;2023-04-25T13:22:03;2.97;;;1.70;;
9689;SDS011;4884;42.614;23.340;2023-04-25T13:24:29;3.13;;;2.10;;
9689;SDS011;4884;42.614;23.340;2023-04-25T13:26:54;4.67;;;2.87;;
9689;SDS011;4884;42.614;23.340;2023-04-25T13:29:20;4.00;;;2.97;;
9689;SDS011;4884;42.614;23.340;2023-04-25T13:31:45;2.80;;;2.50;;
9689;SDS011;4884;42.614;23.340;2023-04-25T13:34:11;2.57;;;1.93;;
9689;SDS011;4884;42.614;23.340;2023-04-25T13:36:37;2.87;;;2.03;;
9689;SDS011;4884;42.614;23.340;2023-04-25T13:39:03;2.53;;;2.33;;
9689;SDS011;4884;42.614;23.340;2023-04-25T13:41:29;2.57;;;1.87;;
9689;SDS011;4884;42.614;23.340;2023-04-25T13:43:55;5.57;;;4.00;;
9689;SDS011;4884;42.614;23.340;2023-04-25T13:46:20;3.53;;;2.67;;
9689;SDS011;4884;42.614;23.340;2023-04-25T13:48:46;2.33;;;2.07;;
9689;SDS011;4884;42.614;23.340;2023-04-25T13:51:14;3.53;;;2.00;;
9689;SDS011;4884;42.614;23.340;2023-04-25T13:53:40;2.27;;;1.93;;
9689;SDS011;4884;42.614;23.340;2023-04-25T13:56:06;6.60;;;4.07;;
9689;SDS011;4884;42.614;23.340;2023-04-25T13:58:31;20.87;;;15.00;;
9689;SDS011;4884;42.614;23.340;2023-04-25T14:00:58;4.03;;;3.50;;
9689;SDS011;4884;42.614;23.340;2023-04-25T14:03:23;4.70;;;4.30;;
9689;SDS011;4884;42.614;23.340;2023-04-25T14:05:49;24.27;;;14.93;;
9689;SDS011;4884;42.614;23.340;2023-04-25T14:08:15;7.10;;;5.03;;
9689;SDS011;4884;42.614;23.340;2023-04-25T14:10:40;9.60;;;6.67;;
9689;SDS011;4884;42.614;23.340;2023-04-25T14:13:05;6.80;;;5.50;;
9689;SDS011;4884;42.614;23.340;2023-04-25T14:15:32;3.37;;;2.17;;
9689;SDS011;4884;42.614;23.340;2023-04-25T14:17:57;1.43;;;1.30;;
9689;SDS011;4884;42.614;23.340;2023-04-25T14:20:23;1.83;;;1.67;;
9689;SDS011;4884;42.614;23.340;2023-04-25T14:22:49;2.47;;;1.40;;
9689;SDS011;4884;42.614;23.340;2023-04-25T14:25:14;2.23;;;1.37;;
9689;SDS011;4884;42.614;23.340;2023-04-25T14:27:40;2.07;;;1.67;;
9689;SDS011;4884;42.614;23.340;2023-04-25T14:30:05;1.20;;;1.10;;
9689;SDS011;4884;42.614;23.340;2023-04-25T14:32:34;1.53;;;1.37;;
9689;SDS011;4884;42.614;23.340;2023-04-25T14:35:00;1.97;;;1.73;;
9689;SDS011;4884;42.614;23.340;2023-04-25T14:37:25;1.33;;;1.00;;
9689;SDS011;4884;42.614;23.340;2023-04-25T14:39:50;1.10;;;1.00;;
9689;SDS011;4884;42.614;23.340;2023-04-25T14:42:16;1.10;;;1.00;;
9689;SDS011;4884;42.614;23.340;2023-04-25T14:44:41;1.90;;;1.73;;
9689;SDS011;4884;42.614;23.340;2023-04-25T14:47:06;2.23;;;1.17;;
9689;SDS011;4884;42.614;23.340;2023-04-25T14:49:32;2.30;;;1.60;;
9689;SDS011;4884;42.614;23.340;2023-04-25T14:51:58;1.73;;;1.20;;
9689;SDS011;4884;42.614;23.340;2023-04-25T14:54:23;1.00;;;1.00;;
9689;SDS011;4884;42.614;23.340;2023-04-25T14:56:48;1.53;;;1.43;;
9689;SDS011;4884;42.614;23.340;2023-04-25T14:59:14;1.40;;;1.30;;
9689;SDS011;4884;42.614;23.340;2023-04-25T15:01:40;1.40;;;1.30;;
9689;SDS011;4884;42.614;23.340;2023-04-25T15:04:05;1.73;;;1.63;;